Back to Top

Language: 

My Weather Underground Personal Weather Station Historical Data with Graphs...

Delerius Weather Station Historical Data
Daily Summary for February 10, 2018 Units:  English    Metric   Both
« Previous Day
Next Day »
Daily Weekly Monthly Yearly Custom
  High: Low: Average:
Temperature: 48.6 °F 30.7 °F 40.7 °F
Dew Point: 46.1 °F 28.3 °F 37.9 °F
Humidity: 93 % 83 % 90 %
Wind Speed: 27.0 mph 0.0 mph 8.7 mph
Wind Gust: 45.0 mph - -
Wind:- - SSW
Pressure: 29.99 in 29.20 in -
Precipitation: 0.06 in    
Historical Graphs
 
 
Tabular Data for February 10, 2018
Time Temperature Dew Point Pressure Wind Wind Speed Wind Gust Humidity Rainfall Rate (Hourly) solar Conditions
00:03 32.9 °F 29.7 °F 29.99 in Calm     88 % 0.00 in 0 W/m2
00:08 32.5 °F 29.4 °F 29.99 in Calm   1.0 mph 88 % 0.00 in 0 W/m2
00:13 32.4 °F 29.2 °F 29.99 in Calm     88 % 0.00 in 0 W/m2
00:18 32.2 °F 29.0 °F 29.99 in West 2.0 mph 5.0 mph 88 % 0.00 in 0 W/m2
00:23 32.2 °F 29.3 °F 29.99 in Calm   1.0 mph 89 % 0.00 in 0 W/m2
00:28 32.0 °F 29.1 °F 29.98 in Calm   1.0 mph 89 % 0.00 in 0 W/m2
00:33 32.0 °F 29.1 °F 29.98 in Calm   1.0 mph 89 % 0.00 in 0 W/m2
00:39 32.0 °F 29.4 °F 29.98 in WNW 2.0 mph 5.0 mph 90 % 0.00 in 0 W/m2
00:44 32.2 °F 29.6 °F 29.98 in West 2.0 mph 6.0 mph 90 % 0.00 in 0 W/m2
00:49 32.5 °F 30.2 °F 29.98 in West 3.0 mph 7.0 mph 91 % 0.00 in 0 W/m2
00:54 33.1 °F 30.7 °F 29.98 in WSW 4.0 mph 7.0 mph 91 % 0.00 in 0 W/m2
00:59 33.4 °F 30.8 °F 29.98 in West 1.0 mph 3.0 mph 90 % 0.00 in 0 W/m2
01:04 33.4 °F 30.8 °F 29.98 in WSW 1.0 mph 5.0 mph 90 % 0.00 in 0 W/m2
01:09 33.4 °F 30.8 °F 29.98 in Calm   3.0 mph 90 % 0.00 in 0 W/m2
01:14 33.4 °F 30.8 °F 29.98 in Calm   1.0 mph 90 % 0.00 in 0 W/m2
01:19 33.3 °F 30.4 °F 29.98 in Calm     89 % 0.00 in 0 W/m2
01:24 32.9 °F 30.0 °F 29.98 in Calm     89 % 0.00 in 0 W/m2
01:29 32.5 °F 29.7 °F 29.98 in Calm     89 % 0.00 in 0 W/m2
01:34 32.4 °F 29.5 °F 29.98 in Calm     89 % 0.00 in 0 W/m2
01:39 32.2 °F 29.6 °F 29.98 in Calm   1.0 mph 90 % 0.00 in 0 W/m2
01:44 32.2 °F 29.6 °F 29.98 in NE 1.0 mph 4.0 mph 90 % 0.00 in 0 W/m2
01:49 32.2 °F 29.6 °F 29.98 in Calm   1.0 mph 90 % 0.00 in 0 W/m2
01:54 32.2 °F 29.6 °F 29.98 in Calm     90 % 0.00 in 0 W/m2
01:59 31.8 °F 29.2 °F 29.97 in Calm     90 % 0.00 in 0 W/m2
02:04 31.8 °F 29.2 °F 29.97 in Calm   1.0 mph 90 % 0.00 in 0 W/m2
02:09 31.6 °F 29.0 °F 29.96 in Calm     90 % 0.00 in 0 W/m2
02:14 31.6 °F 29.3 °F 29.97 in Calm     91 % 0.00 in 0 W/m2
02:19 31.6 °F 29.3 °F 29.97 in Calm   2.0 mph 91 % 0.00 in 0 W/m2
02:24 31.6 °F 29.3 °F 29.97 in Calm   1.0 mph 91 % 0.00 in 0 W/m2
02:29 31.6 °F 29.3 °F 29.97 in Calm     91 % 0.00 in 0 W/m2
02:34 31.6 °F 29.3 °F 29.96 in Calm     91 % 0.00 in 0 W/m2
02:39 31.6 °F 29.3 °F 29.96 in Calm   1.0 mph 91 % 0.00 in 0 W/m2
02:44 31.5 °F 29.1 °F 29.96 in Calm     91 % 0.00 in 0 W/m2
02:49 31.1 °F 28.5 °F 29.96 in Calm     90 % 0.00 in 0 W/m2
02:54 30.9 °F 28.3 °F 29.95 in Calm   1.0 mph 90 % 0.00 in 0 W/m2
02:59 30.7 °F 28.4 °F 29.95 in Calm   2.0 mph 91 % 0.00 in 0 W/m2
03:04 30.9 °F 28.6 °F 29.94 in Calm   1.0 mph 91 % 0.00 in 0 W/m2
03:09 30.9 °F 28.6 °F 29.94 in Calm   1.0 mph 91 % 0.00 in 0 W/m2
03:14 30.9 °F 28.6 °F 29.94 in SSW 2.0 mph 5.0 mph 91 % 0.00 in 0 W/m2
03:19 31.3 °F 29.2 °F 29.94 in Calm   1.0 mph 92 % 0.00 in 0 W/m2
03:24 31.3 °F 29.0 °F 29.93 in SW 1.0 mph 4.0 mph 91 % 0.00 in 0 W/m2
03:29 31.6 °F 29.6 °F 29.93 in SSW 1.0 mph 4.0 mph 92 % 0.00 in 0 W/m2
03:34 31.8 °F 29.5 °F 29.92 in Calm   2.0 mph 91 % 0.00 in 0 W/m2
03:39 31.8 °F 29.5 °F 29.92 in Calm   5.0 mph 91 % 0.00 in 0 W/m2
03:45 32.0 °F 29.4 °F 29.92 in South 2.0 mph 8.0 mph 90 % 0.00 in 0 W/m2
03:50 32.2 °F 29.8 °F 29.92 in South 1.0 mph 2.0 mph 91 % 0.00 in 0 W/m2
03:55 32.5 °F 29.9 °F 29.92 in South 3.0 mph 7.0 mph 90 % 0.00 in 0 W/m2
04:00 32.5 °F 29.9 °F 29.91 in Calm   2.0 mph 90 % 0.00 in 0 W/m2
04:05 32.5 °F 29.7 °F 29.92 in Calm     89 % 0.00 in 0 W/m2
04:10 32.4 °F 29.5 °F 29.92 in Calm     89 % 0.00 in 0 W/m2
04:15 32.2 °F 29.0 °F 29.92 in Calm     88 % 0.00 in 0 W/m2
04:20 32.4 °F 29.5 °F 29.92 in Calm   4.0 mph 89 % 0.00 in 0 W/m2
04:25 32.5 °F 29.7 °F 29.91 in SSE 2.0 mph 4.0 mph 89 % 0.00 in 0 W/m2
04:30 32.5 °F 29.7 °F 29.91 in SSE 5.0 mph 12.0 mph 89 % 0.00 in 0 W/m2
04:35 32.9 °F 30.0 °F 29.91 in SSE 7.0 mph 10.0 mph 89 % 0.00 in 0 W/m2
04:40 33.3 °F 30.1 °F 29.91 in SSE 6.0 mph 9.0 mph 88 % 0.00 in 0 W/m2
04:45 33.4 °F 30.3 °F 29.90 in SSE 4.0 mph 6.0 mph 88 % 0.00 in 0 W/m2
04:50 33.4 °F 30.0 °F 29.90 in South 5.0 mph 7.0 mph 87 % 0.00 in 0 W/m2
04:55 33.6 °F 30.2 °F 29.90 in SSW 4.0 mph 7.0 mph 87 % 0.00 in 0 W/m2
05:00 33.6 °F 30.2 °F 29.90 in SSW 4.0 mph 6.0 mph 87 % 0.00 in 0 W/m2
05:05 33.6 °F 30.2 °F 29.90 in SSW 4.0 mph 7.0 mph 87 % 0.00 in 0 W/m2
05:10 33.6 °F 30.2 °F 29.89 in South 3.0 mph 6.0 mph 87 % 0.00 in 0 W/m2
05:15 34.0 °F 30.5 °F 29.89 in SW 5.0 mph 10.0 mph 87 % 0.00 in 0 W/m2
05:20 34.2 °F 30.7 °F 29.89 in SW 5.0 mph 8.0 mph 87 % 0.00 in 0 W/m2
05:25 34.5 °F 31.0 °F 29.87 in SW 7.0 mph 12.0 mph 87 % 0.00 in 0 W/m2
05:30 34.9 °F 31.4 °F 29.87 in SW 7.0 mph 14.0 mph 87 % 0.00 in 0 W/m2
05:35 35.2 °F 31.8 °F 29.87 in SW 6.0 mph 8.0 mph 87 % 0.00 in 0 W/m2
05:40 35.2 °F 31.5 °F 29.87 in SW 8.0 mph 14.0 mph 86 % 0.00 in 0 W/m2
05:45 35.4 °F 31.6 °F 29.87 in SW 7.0 mph 11.0 mph 86 % 0.00 in 0 W/m2
05:50 35.4 °F 31.6 °F 29.86 in SW 8.0 mph 13.0 mph 86 % 0.00 in 0 W/m2
05:55 35.6 °F 31.8 °F 29.86 in SW 8.0 mph 13.0 mph 86 % 0.00 in 0 W/m2
06:00 35.4 °F 31.4 °F 29.86 in SW 6.0 mph 13.0 mph 85 % 0.00 in 0 W/m2
06:05 35.4 °F 31.6 °F 29.86 in SW 7.0 mph 10.0 mph 86 % 0.00 in 0 W/m2
06:11 35.4 °F 31.4 °F 29.86 in SSW 5.0 mph 10.0 mph 85 % 0.00 in 0 W/m2
06:16 35.4 °F 31.6 °F 29.85 in SSW 1.0 mph 6.0 mph 86 % 0.00 in 0 W/m2
06:21 35.4 °F 31.4 °F 29.85 in SSE 5.0 mph 9.0 mph 85 % 0.00 in 0 W/m2
06:26 35.2 °F 31.2 °F 29.85 in SSE 6.0 mph 9.0 mph 85 % 0.00 in 0 W/m2
06:31 35.1 °F 31.3 °F 29.85 in SSE 7.0 mph 11.0 mph 86 % 0.00 in 0 W/m2
06:36 34.9 °F 31.1 °F 29.84 in South 5.0 mph 11.0 mph 86 % 0.00 in 0 W/m2
06:41 34.9 °F 31.1 °F 29.84 in South 7.0 mph 11.0 mph 86 % 0.00 in 0 W/m2
06:46 34.9 °F 31.4 °F 29.83 in South 7.0 mph 14.0 mph 87 % 0.00 in 0 W/m2
06:51 34.9 °F 31.4 °F 29.83 in South 7.0 mph 13.0 mph 87 % 0.00 in 0 W/m2
06:56 34.9 °F 31.4 °F 29.83 in South 8.0 mph 15.0 mph 87 % 0.00 in 0 W/m2
07:01 34.9 °F 31.4 °F 29.83 in South 5.0 mph 9.0 mph 87 % 0.00 in 0 W/m2
07:06 34.9 °F 31.4 °F 29.82 in South 6.0 mph 10.0 mph 87 % 0.00 in 0 W/m2
07:11 34.9 °F 31.4 °F 29.82 in SSW 6.0 mph 10.0 mph 87 % 0.00 in 0 W/m2
07:16 35.1 °F 31.6 °F 29.82 in SSW 7.0 mph 13.0 mph 87 % 0.00 in 0 W/m2
07:21 35.4 °F 32.2 °F 29.82 in SSW 10.0 mph 15.0 mph 88 % 0.00 in 0 W/m2
07:26 36.0 °F 32.8 °F 29.82 in SSW 9.0 mph 14.0 mph 88 % 0.00 in 0 W/m2
07:31 36.3 °F 32.8 °F 29.81 in South 6.0 mph 8.0 mph 87 % 0.00 in 0 W/m2
07:36 36.7 °F 32.9 °F 29.80 in South 6.0 mph 10.0 mph 86 % 0.00 in 0 W/m2
07:41 36.5 °F 32.7 °F 29.80 in SSW 7.0 mph 12.0 mph 86 % 0.00 in 0 W/m2
07:46 36.9 °F 33.4 °F 29.80 in SSW 9.0 mph 19.0 mph 87 % 0.00 in 0 W/m2
07:51 37.0 °F 33.5 °F 29.79 in SSW 12.0 mph 20.0 mph 87 % 0.00 in 5 W/m2
07:56 37.2 °F 33.4 °F 29.79 in SSW 12.0 mph 18.0 mph 86 % 0.00 in 7 W/m2
08:01 37.6 °F 34.1 °F 29.79 in SW 14.0 mph 28.0 mph 87 % 0.00 in 9 W/m2
08:06 37.8 °F 34.2 °F 29.79 in SW 11.0 mph 19.0 mph 87 % 0.00 in 11 W/m2
08:11 37.9 °F 34.4 °F 29.79 in SW 13.0 mph 20.0 mph 87 % 0.00 in 16 W/m2
08:16 37.8 °F 34.2 °F 29.79 in SW 10.0 mph 18.0 mph 87 % 0.00 in 16 W/m2
08:21 37.6 °F 34.1 °F 29.79 in SW 11.0 mph 18.0 mph 87 % 0.00 in 12 W/m2
08:26 37.2 °F 33.7 °F 29.78 in SSW 11.0 mph 16.0 mph 87 % 0.00 in 12 W/m2
08:31 37.0 °F 33.8 °F 29.78 in SW 10.0 mph 15.0 mph 88 % 0.00 in 19 W/m2
08:36 37.0 °F 33.8 °F 29.77 in SSW 10.0 mph 18.0 mph 88 % 0.00 in 28 W/m2
08:41 37.0 °F 34.1 °F 29.77 in SSW 10.0 mph 20.0 mph 89 % 0.00 in 32 W/m2
08:47 37.0 °F 34.1 °F 29.77 in SSW 11.0 mph 22.0 mph 89 % 0.00 in 28 W/m2
08:52 37.0 °F 34.4 °F 29.77 in SSW 10.0 mph 20.0 mph 90 % 0.00 in 30 W/m2
08:57 37.0 °F 34.4 °F 29.76 in SSW 14.0 mph 23.0 mph 90 % 0.00 in 39 W/m2
09:02 37.0 °F 34.4 °F 29.76 in SSW 11.0 mph 23.0 mph 90 % 0.00 in 33 W/m2
09:07 37.0 °F 34.4 °F 29.75 in SSW 12.0 mph 23.0 mph 90 % 0.00 in 28 W/m2
09:12 37.0 °F 34.7 °F 29.75 in SSW 13.0 mph 23.0 mph 91 % 0.00 in 39 W/m2
09:17 37.0 °F 34.7 °F 29.74 in SSW 14.0 mph 25.0 mph 91 % 0.00 in 26 W/m2
09:22 37.0 °F 34.7 °F 29.74 in SSW 14.0 mph 21.0 mph 91 % 0.00 in 49 W/m2
09:27 37.2 °F 34.8 °F 29.73 in SSW 18.0 mph 26.0 mph 91 % 0.00 in 39 W/m2
09:32 37.2 °F 34.8 °F 29.73 in SSW 18.0 mph 26.0 mph 91 % 0.00 in 53 W/m2
09:37 37.6 °F 35.2 °F 29.72 in SSW 13.0 mph 19.0 mph 91 % 0.00 in 67 W/m2
09:42 37.6 °F 35.2 °F 29.72 in SSW 16.0 mph 22.0 mph 91 % 0.00 in 65 W/m2
09:47 37.8 °F 35.4 °F 29.72 in SSW 14.0 mph 26.0 mph 91 % 0.00 in 56 W/m2
09:52 37.8 °F 35.4 °F 29.72 in SSW 15.0 mph 26.0 mph 91 % 0.00 in 54 W/m2
09:57 37.9 °F 35.5 °F 29.71 in SSW 14.0 mph 28.0 mph 91 % 0.00 in 67 W/m2
10:02 37.9 °F 35.5 °F 29.71 in SSW 12.0 mph 23.0 mph 91 % 0.00 in 72 W/m2
10:07 38.1 °F 35.7 °F 29.71 in SSW 14.0 mph 27.0 mph 91 % 0.01 in 54 W/m2
10:12 38.1 °F 35.7 °F 29.71 in SSW 16.0 mph 29.0 mph 91 % 0.01 in 54 W/m2
10:17 38.1 °F 35.7 °F 29.71 in SSW 12.0 mph 23.0 mph 91 % 0.01 in 69 W/m2
10:22 38.3 °F 35.9 °F 29.70 in SSW 14.0 mph 23.0 mph 91 % 0.01 in 86 W/m2
10:27 38.5 °F 36.4 °F 29.70 in SSW 15.0 mph 27.0 mph 92 % 0.01 in 84 W/m2
10:33 38.5 °F 36.4 °F 29.69 in SSW 15.0 mph 26.0 mph 92 % 0.01 in 102 W/m2
10:38 38.7 °F 36.5 °F 29.69 in SSW 13.0 mph 22.0 mph 92 % 0.01 in 93 W/m2
10:43 38.8 °F 36.7 °F 29.69 in SSW 13.0 mph 24.0 mph 92 % 0.01 in 97 W/m2
10:48 39.0 °F 36.9 °F 29.69 in SSW 15.0 mph 28.0 mph 92 % 0.01 in 97 W/m2
10:53 39.0 °F 36.9 °F 29.68 in SSW 14.0 mph 25.0 mph 92 % 0.01 in 130 W/m2
10:58 39.4 °F 37.2 °F 29.67 in SSW 16.0 mph 26.0 mph 92 % 0.01 in 113 W/m2
11:03 39.6 °F 37.4 °F 29.67 in SSW 15.0 mph 25.0 mph 92 % 0.00 in 113 W/m2
11:08 39.6 °F 37.4 °F 29.67 in SSW 12.0 mph 21.0 mph 92 % 0.00 in 144 W/m2
11:13 39.7 °F 37.6 °F 29.66 in SSW 11.0 mph 20.0 mph 92 % 0.00 in 132 W/m2
11:18 39.9 °F 37.8 °F 29.66 in SSW 12.0 mph 19.0 mph 92 % 0.00 in 121 W/m2
11:23 40.3 °F 38.1 °F 29.66 in SSW 11.0 mph 21.0 mph 92 % 0.00 in 114 W/m2
11:28 40.5 °F 38.3 °F 29.66 in SSW 14.0 mph 26.0 mph 92 % 0.00 in 125 W/m2
11:33 40.5 °F 38.0 °F 29.65 in SSW 11.0 mph 18.0 mph 91 % 0.00 in 105 W/m2
11:38 40.6 °F 38.5 °F 29.65 in SW 13.0 mph 20.0 mph 92 % 0.00 in 137 W/m2
11:43 41.0 °F 38.9 °F 29.65 in SSW 14.0 mph 23.0 mph 92 % 0.00 in 139 W/m2
11:48 41.2 °F 38.8 °F 29.65 in SSW 15.0 mph 23.0 mph 91 % 0.00 in 137 W/m2
11:53 41.4 °F 38.9 °F 29.64 in SSW 11.0 mph 16.0 mph 91 % 0.00 in 132 W/m2
11:58 41.4 °F 39.2 °F 29.64 in SSW 15.0 mph 24.0 mph 92 % 0.00 in 142 W/m2
12:03 41.5 °F 39.1 °F 29.63 in SW 16.0 mph 28.0 mph 91 % 0.00 in 167 W/m2
12:08 41.9 °F 39.5 °F 29.64 in SW 17.0 mph 27.0 mph 91 % 0.00 in 139 W/m2
12:13 42.1 °F 39.6 °F 29.64 in SW 15.0 mph 25.0 mph 91 % 0.00 in 200 W/m2
12:18 42.4 °F 40.0 °F 29.63 in SW 17.0 mph 28.0 mph 91 % 0.00 in 292 W/m2
12:23 43.0 °F 40.5 °F 29.63 in SW 18.0 mph 24.0 mph 91 % 0.00 in 301 W/m2
12:28 43.2 °F 40.7 °F 29.62 in SW 15.0 mph 22.0 mph 91 % 0.00 in 232 W/m2
12:33 43.3 °F 40.6 °F 29.62 in SW 19.0 mph 31.0 mph 90 % 0.00 in 236 W/m2
12:38 43.3 °F 40.9 °F 29.61 in SW 15.0 mph 23.0 mph 91 % 0.00 in 258 W/m2
12:43 43.3 °F 40.9 °F 29.60 in SW 16.0 mph 25.0 mph 91 % 0.00 in 239 W/m2
12:48 43.3 °F 40.9 °F 29.60 in SW 13.0 mph 24.0 mph 91 % 0.00 in 230 W/m2
12:53 43.5 °F 40.8 °F 29.60 in SW 14.0 mph 23.0 mph 90 % 0.00 in 220 W/m2
12:58 43.9 °F 41.1 °F 29.60 in WSW 15.0 mph 25.0 mph 90 % 0.00 in 214 W/m2
13:03 44.1 °F 41.3 °F 29.60 in SW 16.0 mph 24.0 mph 90 % 0.00 in 232 W/m2
13:08 44.1 °F 41.3 °F 29.60 in SW 15.0 mph 28.0 mph 90 % 0.00 in 190 W/m2
13:13 44.2 °F 41.5 °F 29.60 in SW 16.0 mph 25.0 mph 90 % 0.00 in 244 W/m2
13:18 44.6 °F 41.6 °F 29.60 in SW 14.0 mph 25.0 mph 89 % 0.00 in 297 W/m2
13:23 45.0 °F 41.9 °F 29.60 in SW 16.0 mph 24.0 mph 89 % 0.00 in 380 W/m2
13:28 45.5 °F 42.4 °F 29.60 in SW 13.0 mph 20.0 mph 89 % 0.00 in 371 W/m2
13:34 45.9 °F 42.5 °F 29.60 in SW 13.0 mph 22.0 mph 88 % 0.00 in 309 W/m2
13:39 46.0 °F 42.7 °F 29.60 in SW 11.0 mph 16.0 mph 88 % 0.00 in 223 W/m2
13:44 46.2 °F 42.9 °F 29.59 in SW 12.0 mph 19.0 mph 88 % 0.00 in 265 W/m2
13:49 46.2 °F 42.6 °F 29.59 in SW 12.0 mph 16.0 mph 87 % 0.00 in 199 W/m2
13:54 46.2 °F 42.6 °F 29.59 in SW 9.0 mph 13.0 mph 87 % 0.00 in 160 W/m2
13:59 46.2 °F 42.6 °F 29.58 in SW 8.0 mph 13.0 mph 87 % 0.00 in 211 W/m2
14:04 46.2 °F 42.6 °F 29.59 in SSW 11.0 mph 16.0 mph 87 % 0.00 in 221 W/m2
14:09 46.2 °F 42.6 °F 29.59 in SSW 12.0 mph 23.0 mph 87 % 0.00 in 118 W/m2
14:14 46.2 °F 42.6 °F 29.58 in SSW 8.0 mph 14.0 mph 87 % 0.00 in 135 W/m2
14:19 46.0 °F 42.7 °F 29.58 in SSW 10.0 mph 15.0 mph 88 % 0.00 in 88 W/m2
14:24 46.0 °F 42.7 °F 29.58 in SSW 10.0 mph 19.0 mph 88 % 0.00 in 113 W/m2
14:29 45.9 °F 42.5 °F 29.58 in SSW 10.0 mph 15.0 mph 88 % 0.00 in 120 W/m2
14:34 46.0 °F 42.7 °F 29.58 in SSW 8.0 mph 13.0 mph 88 % 0.00 in 86 W/m2
14:39 46.0 °F 42.7 °F 29.57 in South 8.0 mph 14.0 mph 88 % 0.00 in 179 W/m2
14:44 46.4 °F 43.3 °F 29.57 in South 9.0 mph 16.0 mph 89 % 0.00 in 258 W/m2
14:49 46.8 °F 43.4 °F 29.57 in South 10.0 mph 16.0 mph 88 % 0.00 in 142 W/m2
14:54 46.8 °F 43.4 °F 29.56 in SSW 10.0 mph 15.0 mph 88 % 0.00 in 100 W/m2
14:59 46.8 °F 43.4 °F 29.56 in SSW 8.0 mph 18.0 mph 88 % 0.00 in 84 W/m2
15:04 46.6 °F 43.2 °F 29.55 in SSW 8.0 mph 14.0 mph 88 % 0.00 in 81 W/m2
15:09 46.6 °F 43.2 °F 29.55 in South 7.0 mph 11.0 mph 88 % 0.00 in 76 W/m2
15:14 46.4 °F 43.0 °F 29.54 in SSW 10.0 mph 14.0 mph 88 % 0.00 in 65 W/m2
15:19 46.2 °F 43.2 °F 29.53 in SSW 8.0 mph 14.0 mph 89 % 0.00 in 62 W/m2
15:24 46.0 °F 43.3 °F 29.53 in South 12.0 mph 24.0 mph 90 % 0.00 in 54 W/m2
15:29 46.0 °F 43.3 °F 29.53 in SSW 9.0 mph 14.0 mph 90 % 0.00 in 42 W/m2
15:34 46.0 °F 43.3 °F 29.53 in SSW 9.0 mph 15.0 mph 90 % 0.00 in 56 W/m2
15:39 46.0 °F 43.6 °F 29.53 in SSW 10.0 mph 15.0 mph 91 % 0.00 in 40 W/m2
15:44 46.0 °F 43.6 °F 29.53 in SSW 12.0 mph 21.0 mph 91 % 0.00 in 33 W/m2
15:49 46.0 °F 43.6 °F 29.53 in SSW 11.0 mph 18.0 mph 91 % 0.00 in 44 W/m2
15:54 46.2 °F 43.7 °F 29.52 in SSW 10.0 mph 14.0 mph 91 % 0.00 in 62 W/m2
15:59 46.4 °F 43.9 °F 29.52 in SSW 9.0 mph 13.0 mph 91 % 0.00 in 54 W/m2
16:01 46.4 °F 43.9 °F 29.52 in SW 9.0 mph 15.0 mph 91 % 0.00 in 62 W/m2
16:06 46.6 °F 44.1 °F 29.52 in SSW 11.0 mph 18.0 mph 91 % 0.00 in 28 W/m2
16:11 46.6 °F 44.1 °F 29.53 in SW 7.0 mph 13.0 mph 91 % 0.00 in 23 W/m2
16:16 46.6 °F 44.1 °F 29.52 in SW 9.0 mph 13.0 mph 91 % 0.00 in 44 W/m2
16:21 46.6 °F 44.1 °F 29.52 in SW 8.0 mph 12.0 mph 91 % 0.00 in 54 W/m2
16:26 46.6 °F 44.1 °F 29.52 in SSW 9.0 mph 14.0 mph 91 % 0.00 in 39 W/m2
16:31 46.6 °F 44.1 °F 29.52 in SSW 8.0 mph 12.0 mph 91 % 0.00 in 25 W/m2
16:36 46.6 °F 44.1 °F 29.51 in South 8.0 mph 13.0 mph 91 % 0.00 in 18 W/m2
16:41 46.6 °F 44.4 °F 29.51 in SSW 8.0 mph 12.0 mph 92 % 0.00 in 12 W/m2
16:47 46.4 °F 44.2 °F 29.51 in SSW 8.0 mph 12.0 mph 92 % 0.00 in 7 W/m2
16:52 46.2 °F 44.0 °F 29.51 in SSW 9.0 mph 13.0 mph 92 % 0.00 in 7 W/m2
16:57 46.2 °F 44.0 °F 29.50 in South 7.0 mph 10.0 mph 92 % 0.00 in 5 W/m2
17:02 46.2 °F 44.0 °F 29.50 in SSW 6.0 mph 11.0 mph 92 % 0.00 in 0 W/m2
17:07 46.2 °F 44.3 °F 29.50 in South 4.0 mph 7.0 mph 93 % 0.00 in 0 W/m2
17:12 46.2 °F 44.3 °F 29.50 in South 3.0 mph 5.0 mph 93 % 0.00 in 0 W/m2
17:17 46.2 °F 44.3 °F 29.49 in SSE 3.0 mph 5.0 mph 93 % 0.00 in 0 W/m2
17:22 46.2 °F 44.3 °F 29.49 in SSE 2.0 mph 6.0 mph 93 % 0.00 in 0 W/m2
17:27 46.2 °F 44.3 °F 29.48 in SE 2.0 mph 5.0 mph 93 % 0.00 in 0 W/m2
17:32 46.0 °F 44.1 °F 29.47 in SE 5.0 mph 8.0 mph 93 % 0.00 in 0 W/m2
17:37 46.0 °F 44.1 °F 29.47 in SE 7.0 mph 11.0 mph 93 % 0.00 in 0 W/m2
17:42 46.0 °F 44.1 °F 29.47 in SSE 6.0 mph 9.0 mph 93 % 0.00 in 0 W/m2
17:47 45.9 °F 44.0 °F 29.47 in SE 7.0 mph 10.0 mph 93 % 0.00 in 0 W/m2
17:52 45.9 °F 44.0 °F 29.46 in SE 9.0 mph 13.0 mph 93 % 0.00 in 0 W/m2
17:58 46.0 °F 44.1 °F 29.46 in South 6.0 mph 10.0 mph 93 % 0.00 in 0 W/m2
18:03 46.0 °F 44.1 °F 29.46 in South 6.0 mph 12.0 mph 93 % 0.00 in 0 W/m2
18:08 46.2 °F 44.3 °F 29.46 in South 7.0 mph 14.0 mph 93 % 0.00 in 0 W/m2
18:13 46.2 °F 44.3 °F 29.45 in SE 5.0 mph 9.0 mph 93 % 0.00 in 0 W/m2
18:18 46.4 °F 44.5 °F 29.45 in ESE 3.0 mph 7.0 mph 93 % 0.00 in 0 W/m2
18:23 46.6 °F 44.7 °F 29.45 in East 2.0 mph 4.0 mph 93 % 0.00 in 0 W/m2
18:28 46.6 °F 44.7 °F 29.44 in SE 6.0 mph 14.0 mph 93 % 0.00 in 0 W/m2
18:33 46.6 °F 44.7 °F 29.43 in Calm   2.0 mph 93 % 0.00 in 0 W/m2
18:38 46.6 °F 44.4 °F 29.43 in SE 3.0 mph 5.0 mph 92 % 0.00 in 0 W/m2
18:43 46.6 °F 44.7 °F 29.43 in South 4.0 mph 8.0 mph 93 % 0.00 in 0 W/m2
18:48 46.8 °F 44.8 °F 29.42 in SSW 6.0 mph 10.0 mph 93 % 0.00 in 0 W/m2
18:53 46.9 °F 44.7 °F 29.41 in South 8.0 mph 13.0 mph 92 % 0.00 in 0 W/m2
18:58 46.9 °F 44.7 °F 29.40 in SSW 7.0 mph 10.0 mph 92 % 0.00 in 0 W/m2
19:03 47.1 °F 44.6 °F 29.40 in SSW 8.0 mph 14.0 mph 91 % 0.00 in 0 W/m2
19:08 46.9 °F 44.2 °F 29.40 in SW 8.0 mph 16.0 mph 90 % 0.00 in 0 W/m2
19:13 47.1 °F 44.3 °F 29.40 in SSW 13.0 mph 20.0 mph 90 % 0.00 in 0 W/m2
19:18 47.1 °F 44.0 °F 29.40 in SW 10.0 mph 15.0 mph 89 % 0.00 in 0 W/m2
19:23 47.3 °F 43.9 °F 29.41 in SW 11.0 mph 16.0 mph 88 % 0.00 in 0 W/m2
19:28 47.5 °F 44.1 °F 29.42 in SW 10.0 mph 14.0 mph 88 % 0.00 in 0 W/m2
19:33 47.5 °F 44.1 °F 29.41 in SW 10.0 mph 15.0 mph 88 % 0.00 in 0 W/m2
19:38 47.7 °F 44.3 °F 29.40 in SW 9.0 mph 13.0 mph 88 % 0.00 in 0 W/m2
19:43 47.7 °F 44.3 °F 29.40 in SSW 10.0 mph 15.0 mph 88 % 0.00 in 0 W/m2
19:48 47.7 °F 44.3 °F 29.39 in SSW 10.0 mph 14.0 mph 88 % 0.00 in 0 W/m2
19:53 47.5 °F 44.1 °F 29.38 in SSW 11.0 mph 20.0 mph 88 % 0.00 in 0 W/m2
19:58 47.5 °F 44.1 °F 29.37 in SSW 10.0 mph 18.0 mph 88 % 0.00 in 0 W/m2
20:03 47.7 °F 44.3 °F 29.37 in SW 15.0 mph 21.0 mph 88 % 0.00 in 0 W/m2
20:08 47.8 °F 44.5 °F 29.36 in SW 13.0 mph 22.0 mph 88 % 0.01 in 0 W/m2
20:13 47.7 °F 44.3 °F 29.36 in SW 13.0 mph 19.0 mph 88 % 0.01 in 0 W/m2
20:18 47.7 °F 44.3 °F 29.35 in SW 11.0 mph 20.0 mph 88 % 0.01 in 0 W/m2
20:23 47.7 °F 44.3 °F 29.34 in SSW 10.0 mph 14.0 mph 88 % 0.01 in 0 W/m2
20:28 47.7 °F 44.6 °F 29.34 in SSW 8.0 mph 13.0 mph 89 % 0.01 in 0 W/m2
20:33 47.5 °F 44.4 °F 29.34 in SSW 8.0 mph 14.0 mph 89 % 0.01 in 0 W/m2
20:38 47.5 °F 44.7 °F 29.33 in South 7.0 mph 11.0 mph 90 % 0.01 in 0 W/m2
20:43 47.5 °F 44.7 °F 29.33 in South 7.0 mph 10.0 mph 90 % 0.01 in 0 W/m2
20:48 47.5 °F 44.7 °F 29.32 in South 6.0 mph 9.0 mph 90 % 0.01 in 0 W/m2
20:53 47.5 °F 44.7 °F 29.31 in SSE 6.0 mph 8.0 mph 90 % 0.01 in 0 W/m2
20:58 47.5 °F 45.0 °F 29.30 in SSE 7.0 mph 10.0 mph 91 % 0.01 in 0 W/m2
21:03 47.3 °F 44.8 °F 29.30 in SSE 6.0 mph 8.0 mph 91 % 0.00 in 0 W/m2
21:08 47.3 °F 44.8 °F 29.29 in South 7.0 mph 10.0 mph 91 % 0.00 in 0 W/m2
21:13 47.5 °F 45.0 °F 29.28 in SSW 9.0 mph 14.0 mph 91 % 0.00 in 0 W/m2
21:19 47.5 °F 45.0 °F 29.28 in SSW 10.0 mph 20.0 mph 91 % 0.00 in 0 W/m2
21:24 47.8 °F 45.3 °F 29.27 in SSW 12.0 mph 21.0 mph 91 % 0.00 in 0 W/m2
21:29 48.0 °F 45.5 °F 29.27 in SSW 14.0 mph 23.0 mph 91 % 0.00 in 0 W/m2
21:34 48.2 °F 45.4 °F 29.26 in SSW 14.0 mph 23.0 mph 90 % 0.00 in 0 W/m2
21:39 48.2 °F 45.4 °F 29.26 in SSW 12.0 mph 19.0 mph 90 % 0.00 in 0 W/m2
21:44 48.2 °F 45.7 °F 29.26 in SW 11.0 mph 19.0 mph 91 % 0.00 in 0 W/m2
21:49 48.2 °F 45.7 °F 29.25 in SSW 12.0 mph 18.0 mph 91 % 0.00 in 0 W/m2
21:54 48.4 °F 45.9 °F 29.25 in SW 11.0 mph 18.0 mph 91 % 0.00 in 0 W/m2
21:59 48.2 °F 45.7 °F 29.25 in SW 11.0 mph 15.0 mph 91 % 0.00 in 0 W/m2
22:04 48.2 °F 45.7 °F 29.24 in SW 12.0 mph 24.0 mph 91 % 0.00 in 0 W/m2
22:09 48.4 °F 45.9 °F 29.23 in SW 17.0 mph 26.0 mph 91 % 0.00 in 0 W/m2
22:14 48.6 °F 46.1 °F 29.23 in SW 12.0 mph 21.0 mph 91 % 0.00 in 0 W/m2
22:19 48.6 °F 46.1 °F 29.23 in SSW 12.0 mph 23.0 mph 91 % 0.00 in 0 W/m2
22:24 48.4 °F 45.9 °F 29.22 in SSW 12.0 mph 19.0 mph 91 % 0.00 in 0 W/m2
22:29 48.4 °F 45.9 °F 29.22 in SSW 11.0 mph 16.0 mph 91 % 0.00 in 0 W/m2
22:34 48.2 °F 46.0 °F 29.22 in SW 11.0 mph 16.0 mph 92 % 0.00 in 0 W/m2
22:39 48.0 °F 45.8 °F 29.22 in SSW 12.0 mph 20.0 mph 92 % 0.01 in 0 W/m2
22:44 48.0 °F 45.8 °F 29.22 in SW 11.0 mph 15.0 mph 92 % 0.02 in 0 W/m2
22:49 48.0 °F 46.1 °F 29.22 in WSW 10.0 mph 16.0 mph 93 % 0.02 in 0 W/m2
22:54 48.0 °F 46.1 °F 29.22 in West 9.0 mph 15.0 mph 93 % 0.02 in 0 W/m2
22:59 47.8 °F 45.9 °F 29.21 in WSW 14.0 mph 24.0 mph 93 % 0.03 in 0 W/m2
23:04 47.5 °F 44.7 °F 29.20 in WSW 19.0 mph 34.0 mph 90 % 0.03 in 0 W/m2
23:09 47.5 °F 44.4 °F 29.20 in WSW 15.0 mph 25.0 mph 89 % 0.03 in 0 W/m2
23:14 47.1 °F 44.0 °F 29.21 in WSW 19.0 mph 31.0 mph 89 % 0.04 in 0 W/m2
23:19 46.6 °F 42.9 °F 29.22 in West 25.0 mph 35.0 mph 87 % 0.04 in 0 W/m2
23:24 45.7 °F 41.4 °F 29.22 in WSW 26.0 mph 38.0 mph 85 % 0.04 in 0 W/m2
23:29 45.0 °F 40.4 °F 29.22 in West 26.0 mph 40.0 mph 84 % 0.04 in 0 W/m2
23:34 44.2 °F 39.7 °F 29.22 in West 26.0 mph 43.0 mph 84 % 0.04 in 0 W/m2
23:39 43.9 °F 39.1 °F 29.22 in West 27.0 mph 45.0 mph 83 % 0.03 in 0 W/m2
23:44 43.7 °F 38.9 °F 29.21 in WSW 25.0 mph 37.0 mph 83 % 0.02 in 0 W/m2
23:49 43.3 °F 38.8 °F 29.21 in WSW 23.0 mph 38.0 mph 84 % 0.02 in 0 W/m2
23:55 43.0 °F 39.1 °F 29.21 in West 22.0 mph 29.0 mph 86 % 0.02 in 0 W/m2
Delerius-Weather
Compliments of Weather Underground - 2.25 mb

Data updates at regular intervals.